createdAt,value
2017-05-25T00:00:32.809Z,0
2017-05-25T00:01:41.704Z,0
2017-05-25T00:02:50.601Z,0
2017-05-25T00:03:59.498Z,0
2017-05-25T00:05:09.038Z,0
2017-05-25T00:06:18.832Z,0
2017-05-25T00:07:28.052Z,0
2017-05-25T00:08:36.942Z,0
2017-05-25T00:09:46.489Z,0
2017-05-25T00:10:56.032Z,0
2017-05-25T00:12:04.977Z,0
2017-05-25T00:13:14.208Z,0
2017-05-25T00:14:23.427Z,0
2017-05-25T00:15:32.474Z,0
2017-05-25T00:16:41.687Z,0
2017-05-25T00:17:51.426Z,0
2017-05-25T00:19:00.643Z,0
2017-05-25T00:20:09.531Z,0
2017-05-25T00:21:18.747Z,0
2017-05-25T00:22:27.639Z,0
2017-05-25T00:23:36.731Z,0
2017-05-25T00:24:45.623Z,0
2017-05-25T00:25:54.845Z,0
2017-05-25T00:27:04.062Z,0
2017-05-25T00:28:13.924Z,0
2017-05-25T00:29:23.202Z,0
2017-05-25T00:30:32.744Z,0
2017-05-25T00:31:41.638Z,0
2017-05-25T00:32:50.531Z,0
2017-05-25T00:34:00.074Z,0
2017-05-25T00:35:09.118Z,0
2017-05-25T00:36:18.662Z,0
2017-05-25T00:37:27.552Z,0
2017-05-25T00:38:36.767Z,0
2017-05-25T00:39:45.984Z,0
2017-05-25T00:40:55.675Z,0
2017-05-25T00:42:04.569Z,0
2017-05-25T00:43:13.782Z,0
2017-05-25T00:44:23.062Z,0
2017-05-25T00:45:32.604Z,0
2017-05-25T00:46:41.796Z,0
2017-05-25T00:47:51.335Z,0
2017-05-25T00:49:00.552Z,0
2017-05-25T00:50:09.445Z,0
2017-05-25T00:51:18.335Z,0
2017-05-25T00:52:27.378Z,0
2017-05-25T00:53:36.920Z,0
2017-05-25T00:54:46.193Z,0
2017-05-25T00:55:55.734Z,0
2017-05-25T00:57:05.277Z,0
2017-05-25T00:58:15.068Z,0
2017-05-25T00:59:25.264Z,0
2017-05-25T01:00:34.482Z,0
2017-05-25T01:01:43.696Z,0
2017-05-25T01:02:53.252Z,0
2017-05-25T01:04:02.515Z,0
2017-05-25T01:05:11.410Z,0
2017-05-25T01:06:20.950Z,0
2017-05-25T01:07:29.845Z,0
2017-05-25T01:08:38.738Z,0
2017-05-25T01:09:47.633Z,0
2017-05-25T01:10:56.851Z,0
2017-05-25T01:12:05.747Z,0
2017-05-25T01:13:15.613Z,0
2017-05-25T01:14:24.514Z,0
2017-05-25T01:15:34.311Z,0
2017-05-25T01:16:43.206Z,0
2017-05-25T01:17:52.105Z,0
2017-05-25T01:19:00.996Z,0
2017-05-25T01:20:09.889Z,0
2017-05-25T01:21:18.930Z,0
2017-05-25T01:22:27.892Z,0
2017-05-25T01:23:37.107Z,0
2017-05-25T01:24:46.651Z,0
2017-05-25T01:25:56.192Z,0
2017-05-25T01:27:05.568Z,0
2017-05-25T01:28:14.795Z,0
2017-05-25T01:29:24.345Z,0
2017-05-25T01:30:33.566Z,0
2017-05-25T01:31:42.463Z,0
2017-05-25T01:32:51.835Z,0
2017-05-25T01:34:00.726Z,0
2017-05-25T01:35:09.942Z,0
2017-05-25T01:36:18.833Z,0
2017-05-25T01:37:27.727Z,0
2017-05-25T01:38:37.273Z,0
2017-05-25T01:39:46.498Z,0
2017-05-25T01:40:56.041Z,0
2017-05-25T01:42:05.258Z,0
2017-05-25T01:43:15.132Z,0
2017-05-25T01:44:24.500Z,0
2017-05-25T01:45:34.043Z,0
2017-05-25T01:46:43.589Z,0
2017-05-25T01:47:52.811Z,0
2017-05-25T01:49:01.706Z,0
2017-05-25T01:50:10.973Z,0
2017-05-25T01:51:20.196Z,0
2017-05-25T01:52:29.091Z,0
2017-05-25T01:53:38.964Z,0
2017-05-25T01:54:48.186Z,0
2017-05-25T01:55:57.555Z,0
2017-05-25T01:57:06.450Z,0
2017-05-25T01:58:15.400Z,0
2017-05-25T01:59:24.303Z,0
2017-05-25T02:00:33.521Z,0
2017-05-25T02:01:42.414Z,0
2017-05-25T02:02:51.314Z,0
2017-05-25T02:04:01.184Z,0
2017-05-25T02:05:10.076Z,0
2017-05-25T02:06:19.297Z,0
2017-05-25T02:07:28.337Z,0
2017-05-25T02:08:37.555Z,0
2017-05-25T02:09:47.098Z,0
2017-05-25T02:10:56.646Z,0
2017-05-25T02:12:05.546Z,0
2017-05-25T02:13:14.688Z,0
2017-05-25T02:14:23.584Z,0
2017-05-25T02:15:32.804Z,0
2017-05-25T02:16:41.698Z,0
2017-05-25T02:17:50.589Z,0
2017-05-25T02:18:59.911Z,0
2017-05-25T02:20:09.127Z,0
2017-05-25T02:21:18.346Z,0
2017-05-25T02:22:27.238Z,0
2017-05-25T02:23:36.453Z,0
2017-05-25T02:24:45.674Z,0
2017-05-25T02:25:55.221Z,0
2017-05-25T02:27:04.165Z,0
2017-05-25T02:28:13.715Z,0
2017-05-25T02:29:22.931Z,0
2017-05-25T02:30:32.622Z,0
2017-05-25T02:31:41.514Z,0
2017-05-25T02:32:50.412Z,0
2017-05-25T02:33:59.309Z,0
2017-05-25T02:35:08.849Z,0
2017-05-25T02:36:18.717Z,0
2017-05-25T02:37:27.933Z,0
2017-05-25T02:38:37.474Z,4
2017-05-25T02:39:46.693Z,4
2017-05-25T02:40:55.911Z,0
2017-05-25T02:42:05.283Z,4
2017-05-25T02:43:14.499Z,4
2017-05-25T02:44:24.384Z,0
2017-05-25T02:45:33.605Z,4
2017-05-25T02:46:42.826Z,4
2017-05-25T02:47:52.851Z,4
2017-05-25T02:49:02.401Z,4
2017-05-25T02:50:11.298Z,8
2017-05-25T02:51:20.838Z,4
2017-05-25T02:52:30.055Z,8
2017-05-25T02:53:39.097Z,12
2017-05-25T02:54:48.313Z,12
2017-05-25T02:55:57.871Z,16
2017-05-25T02:57:07.084Z,12
2017-05-25T02:58:16.306Z,16
2017-05-25T02:59:25.579Z,16
2017-05-25T03:00:35.124Z,24
2017-05-25T03:01:44.021Z,28
2017-05-25T03:02:53.250Z,28
2017-05-25T03:04:02.466Z,28
2017-05-25T03:05:11.836Z,32
2017-05-25T03:06:20.734Z,36
2017-05-25T03:07:30.278Z,40
2017-05-25T03:08:40.211Z,40
2017-05-25T03:09:49.753Z,52
2017-05-25T03:10:58.953Z,56
2017-05-25T03:12:08.170Z,64
2017-05-25T03:13:17.066Z,60
2017-05-25T03:14:26.625Z,68
2017-05-25T03:15:35.517Z,72
2017-05-25T03:16:44.560Z,92
2017-05-25T03:17:53.775Z,92
2017-05-25T03:19:02.670Z,112
2017-05-25T03:20:11.887Z,140
2017-05-25T03:21:20.779Z,196
2017-05-25T03:22:29.818Z,228
2017-05-25T03:23:39.039Z,188
2017-05-25T03:24:48.266Z,204
2017-05-25T03:25:57.163Z,260
2017-05-25T03:27:06.706Z,288
2017-05-25T03:28:15.655Z,272
2017-05-25T03:29:25.206Z,232
2017-05-25T03:30:34.099Z,288
2017-05-25T03:31:43.316Z,312
2017-05-25T03:32:52.538Z,352
2017-05-25T03:34:01.862Z,336
2017-05-25T03:35:10.758Z,296
2017-05-25T03:36:19.652Z,344
2017-05-25T03:37:28.873Z,416
2017-05-25T03:38:38.092Z,424
2017-05-25T03:39:47.742Z,456
2017-05-25T03:40:56.961Z,548
2017-05-25T03:42:05.857Z,616
2017-05-25T03:43:15.727Z,628
2017-05-25T03:44:25.598Z,664
2017-05-25T03:45:34.868Z,668
2017-05-25T03:46:44.087Z,612
2017-05-25T03:47:53.304Z,632
2017-05-25T03:49:02.532Z,668
2017-05-25T03:50:12.075Z,644
2017-05-25T03:51:21.444Z,740
2017-05-25T03:52:30.338Z,756
2017-05-25T03:53:39.234Z,892
2017-05-25T03:54:48.777Z,924
2017-05-25T03:55:57.674Z,852
2017-05-25T03:57:07.044Z,868
2017-05-25T03:58:16.589Z,928
2017-05-25T03:59:26.138Z,988
2017-05-25T04:00:35.682Z,1016
2017-05-25T04:01:44.902Z,968
2017-05-25T04:02:54.451Z,1008
2017-05-25T04:04:03.672Z,1096
2017-05-25T04:05:12.894Z,1108
2017-05-25T04:06:22.113Z,1120
2017-05-25T04:07:31.331Z,1060
2017-05-25T04:08:40.851Z,968
2017-05-25T04:09:50.078Z,1100
2017-05-25T04:10:59.292Z,1188
2017-05-25T04:12:08.184Z,1060
2017-05-25T04:13:17.734Z,1160
2017-05-25T04:14:27.606Z,1080
2017-05-25T04:15:36.823Z,1292
2017-05-25T04:16:45.715Z,1352
2017-05-25T04:17:55.259Z,1400
2017-05-25T04:19:04.481Z,1452
2017-05-25T04:20:13.948Z,1360
2017-05-25T04:21:23.496Z,1180
2017-05-25T04:22:32.443Z,1156
2017-05-25T04:23:41.662Z,1308
2017-05-25T04:24:50.557Z,1540
2017-05-25T04:25:59.617Z,1968
2017-05-25T04:27:08.512Z,1844
2017-05-25T04:28:17.407Z,1856
2017-05-25T04:29:27.280Z,2144
2017-05-25T04:30:36.172Z,2056
2017-05-25T04:31:45.225Z,2376
2017-05-25T04:32:54.446Z,2344
2017-05-25T04:34:04.315Z,2264
2017-05-25T04:35:13.537Z,2080
2017-05-25T04:36:22.753Z,1932
2017-05-25T04:37:31.799Z,1724
2017-05-25T04:38:41.675Z,1796
2017-05-25T04:39:51.216Z,2224
2017-05-25T04:41:00.110Z,1612
2017-05-25T04:42:09.328Z,1820
2017-05-25T04:43:18.373Z,2156
2017-05-25T04:44:28.244Z,2516
2017-05-25T04:45:37.791Z,2388
2017-05-25T04:46:47.012Z,1936
2017-05-25T04:47:56.241Z,1852
2017-05-25T04:49:05.343Z,1580
2017-05-25T04:50:14.240Z,1684
2017-05-25T04:51:23.786Z,1832
2017-05-25T04:52:33.002Z,1896
2017-05-25T04:53:42.549Z,2060
2017-05-25T04:54:51.819Z,2152
2017-05-25T04:56:01.369Z,2180
2017-05-25T04:57:10.265Z,1816
2017-05-25T04:58:19.487Z,1892
2017-05-25T04:59:28.376Z,1980
2017-05-25T05:00:37.272Z,2244
2017-05-25T05:01:46.829Z,1680
2017-05-25T05:02:55.721Z,1696
2017-05-25T05:04:04.944Z,1856
2017-05-25T05:05:13.835Z,2288
2017-05-25T05:06:23.026Z,1624
2017-05-25T05:07:32.896Z,2060
2017-05-25T05:08:41.792Z,1704
2017-05-25T05:09:51.368Z,1912
2017-05-25T05:11:00.323Z,1424
2017-05-25T05:12:09.562Z,1332
2017-05-25T05:13:18.782Z,1448
2017-05-25T05:14:28.005Z,1412
2017-05-25T05:15:37.226Z,1888
2017-05-25T05:16:46.116Z,2032
2017-05-25T05:17:55.713Z,1440
2017-05-25T05:19:04.934Z,1356
2017-05-25T05:20:13.828Z,1648
2017-05-25T05:21:23.045Z,2532
2017-05-25T05:22:31.940Z,2564
2017-05-25T05:23:40.838Z,2672
2017-05-25T05:24:50.384Z,2656
2017-05-25T05:25:59.275Z,2240
2017-05-25T05:27:08.495Z,2056
2017-05-25T05:28:17.393Z,1796
2017-05-25T05:29:27.413Z,1576
2017-05-25T05:30:36.634Z,1564
2017-05-25T05:31:45.526Z,1332
2017-05-25T05:32:54.742Z,1308
2017-05-25T05:34:04.287Z,1328
2017-05-25T05:35:13.608Z,1436
2017-05-25T05:36:22.504Z,1484
2017-05-25T05:37:31.725Z,1524
2017-05-25T05:38:40.623Z,1416
2017-05-25T05:39:49.853Z,1492
2017-05-25T05:40:58.917Z,1672
2017-05-25T05:42:08.026Z,1760
2017-05-25T05:43:16.943Z,1800
2017-05-25T05:44:25.838Z,1964
2017-05-25T05:45:35.381Z,1792
2017-05-25T05:46:44.602Z,2836
2017-05-25T05:47:53.826Z,3248
2017-05-25T05:49:03.375Z,2932
2017-05-25T05:50:12.286Z,2444
2017-05-25T05:51:21.197Z,2592
2017-05-25T05:52:59.849Z,2344
2017-05-25T05:54:09.421Z,2280
2017-05-25T05:55:18.935Z,2140
2017-05-25T05:56:28.184Z,2200
2017-05-25T05:57:37.665Z,2004
2017-05-25T05:58:46.934Z,2072
2017-05-25T05:59:56.193Z,2024
2017-05-25T06:01:05.430Z,1844
2017-05-25T06:02:14.338Z,1708
2017-05-25T06:03:23.604Z,1540
2017-05-25T06:04:32.642Z,1576
2017-05-25T06:05:41.938Z,1720
2017-05-25T06:06:51.310Z,1796
2017-05-25T06:08:00.394Z,1776
2017-05-25T06:09:09.582Z,1772
2017-05-25T06:10:19.629Z,1932
2017-05-25T06:11:28.720Z,1884
2017-05-25T06:12:38.111Z,2008
2017-05-25T06:13:48.435Z,1968
2017-05-25T06:14:58.543Z,1948
2017-05-25T06:16:07.495Z,1928
2017-05-25T06:17:16.426Z,1724
2017-05-25T06:18:26.302Z,1680
2017-05-25T06:19:35.521Z,1736
2017-05-25T06:20:45.217Z,1636
2017-05-25T06:21:54.292Z,1436
2017-05-25T06:23:03.298Z,1492
2017-05-25T06:24:13.179Z,1720
2017-05-25T06:25:22.727Z,1636
2017-05-25T06:26:32.095Z,1680
2017-05-25T06:27:41.317Z,1700
2017-05-25T06:28:51.187Z,1964
2017-05-25T06:30:00.734Z,2212
2017-05-25T06:31:09.953Z,2068
2017-05-25T06:32:18.872Z,1936
2017-05-25T06:33:28.757Z,1820
2017-05-25T06:34:37.980Z,1868
2017-05-25T06:35:47.197Z,1780
2017-05-25T06:36:56.091Z,1844
2017-05-25T06:38:05.784Z,2824
2017-05-25T06:39:14.682Z,2496
2017-05-25T06:40:24.232Z,2544
2017-05-25T06:41:33.125Z,2304
2017-05-25T06:42:42.667Z,2160
2017-05-25T06:43:52.367Z,2044
2017-05-25T06:45:01.592Z,1980
2017-05-25T06:46:10.483Z,1988
2017-05-25T06:47:19.383Z,1936
2017-05-25T06:48:28.599Z,1988
2017-05-25T06:49:38.569Z,1944
2017-05-25T06:50:47.788Z,2416
2017-05-25T06:51:57.018Z,3244
2017-05-25T06:53:05.915Z,3956
2017-05-25T06:54:15.135Z,4092
2017-05-25T06:55:24.679Z,3660
2017-05-25T06:56:33.901Z,3520
2017-05-25T06:57:43.455Z,3228
2017-05-25T06:58:52.674Z,3140
2017-05-25T07:00:01.900Z,3572
2017-05-25T07:01:11.146Z,4612
2017-05-25T07:02:20.365Z,4928
2017-05-25T07:03:29.260Z,4968
2017-05-25T07:04:38.482Z,4416
2017-05-25T07:05:47.375Z,4304
2017-05-25T07:06:56.748Z,4468
2017-05-25T07:08:05.999Z,4512
2017-05-25T07:09:14.902Z,4784
2017-05-25T07:10:24.122Z,4408
2017-05-25T07:11:33.672Z,4504
2017-05-25T07:12:42.895Z,4484
2017-05-25T07:13:52.772Z,4212
2017-05-25T07:15:02.322Z,3928
2017-05-25T07:16:11.882Z,4612
2017-05-25T07:17:22.008Z,3912
2017-05-25T07:18:31.051Z,3228
2017-05-25T07:19:39.969Z,2876
2017-05-25T07:20:49.509Z,3268
2017-05-25T07:21:58.728Z,3536
2017-05-25T07:23:07.626Z,3244
2017-05-25T07:24:16.870Z,4940
2017-05-25T07:25:26.783Z,7828
2017-05-25T07:26:36.003Z,5352
2017-05-25T07:27:45.552Z,6428
2017-05-25T07:28:55.168Z,6984
2017-05-25T07:30:05.233Z,8900
2017-05-25T07:31:14.132Z,10068
2017-05-25T07:32:23.024Z,8548
2017-05-25T07:33:31.921Z,9092
2017-05-25T07:34:40.816Z,9364
2017-05-25T07:35:50.406Z,8796
2017-05-25T07:37:00.274Z,9556
2017-05-25T07:38:09.558Z,9396
2017-05-25T07:39:18.786Z,9012
2017-05-25T07:40:28.011Z,7816
2017-05-25T07:41:37.056Z,7712
2017-05-25T07:42:46.298Z,7220
2017-05-25T07:43:55.517Z,8168
2017-05-25T07:45:05.067Z,7652
2017-05-25T07:46:13.965Z,6792
2017-05-25T07:47:22.865Z,7224
2017-05-25T07:48:32.410Z,7736
2017-05-25T07:49:41.960Z,6576
2017-05-25T07:50:51.179Z,7232
2017-05-25T07:52:00.739Z,7444
2017-05-25T07:53:10.010Z,7984
2017-05-25T07:54:18.916Z,9604
2017-05-25T07:55:27.813Z,9244
2017-05-25T07:56:37.034Z,10364
2017-05-25T07:57:45.933Z,10180
2017-05-25T07:58:54.888Z,11964
2017-05-25T08:00:05.089Z,10984
2017-05-25T08:01:13.986Z,10664
2017-05-25T08:02:23.535Z,11728
2017-05-25T08:03:32.757Z,11552
2017-05-25T08:04:41.978Z,10844
2017-05-25T08:05:51.199Z,11368
2017-05-25T08:07:00.428Z,10088
2017-05-25T08:08:09.652Z,10080
2017-05-25T08:09:18.882Z,8104
2017-05-25T08:10:27.932Z,8388
2017-05-25T08:11:37.156Z,12092
2017-05-25T08:12:46.709Z,12304
2017-05-25T08:13:55.609Z,11960
2017-05-25T08:15:04.833Z,10680
2017-05-25T08:16:14.433Z,8700
2017-05-25T08:17:23.653Z,9348
2017-05-25T08:18:33.198Z,10328
2017-05-25T08:19:42.428Z,11100
2017-05-25T08:20:51.326Z,12340
2017-05-25T08:22:00.918Z,11572
2017-05-25T08:23:09.817Z,9632
2017-05-25T08:24:18.718Z,11416
2017-05-25T08:25:28.678Z,11744
2017-05-25T08:26:38.390Z,13004
2017-05-25T08:27:48.421Z,12432
2017-05-25T08:28:57.972Z,10912
2017-05-25T08:30:07.191Z,9132
2017-05-25T08:31:16.744Z,8664
2017-05-25T08:32:25.641Z,7272
2017-05-25T08:33:34.926Z,4840
2017-05-25T08:34:43.822Z,4876
2017-05-25T08:35:53.699Z,5516
2017-05-25T08:37:02.928Z,5012
2017-05-25T08:38:11.823Z,4884
2017-05-25T08:39:21.472Z,5468
2017-05-25T08:40:30.370Z,4996
2017-05-25T08:41:40.246Z,5232
2017-05-25T08:42:49.544Z,6220
2017-05-25T08:43:58.445Z,5952
2017-05-25T08:45:08.143Z,4196
2017-05-25T08:46:17.367Z,4080
2017-05-25T08:47:26.602Z,4356
2017-05-25T08:48:35.824Z,4900
2017-05-25T08:49:45.047Z,5900
2017-05-25T08:50:54.470Z,6344
2017-05-25T08:52:03.694Z,6724
2017-05-25T08:53:12.597Z,7396
2017-05-25T08:54:21.834Z,6936
2017-05-25T08:55:31.061Z,7352
2017-05-25T08:56:40.054Z,7320
2017-05-25T08:57:48.949Z,9336
2017-05-25T08:58:58.174Z,10128
2017-05-25T09:00:07.398Z,5116
2017-05-25T09:01:16.291Z,4248
2017-05-25T09:02:25.618Z,5452
2017-05-25T09:03:34.528Z,5260
2017-05-25T09:04:43.749Z,5020
2017-05-25T09:05:53.298Z,6364
2017-05-25T09:07:02.523Z,10808
2017-05-25T09:08:12.224Z,12792
2017-05-25T09:09:21.778Z,13268
2017-05-25T09:10:31.013Z,13740
2017-05-25T09:11:40.291Z,11508
2017-05-25T09:12:49.516Z,11252
2017-05-25T09:13:59.370Z,12448
2017-05-25T09:15:08.603Z,11356
2017-05-25T09:16:17.510Z,7032
2017-05-25T09:17:26.415Z,5520
2017-05-25T09:18:35.964Z,9232
2017-05-25T09:19:45.012Z,13200
2017-05-25T09:20:54.236Z,12784
2017-05-25T09:22:03.146Z,13032
2017-05-25T09:23:12.369Z,11812
2017-05-25T09:24:21.925Z,12164
2017-05-25T09:25:31.037Z,12776
2017-05-25T09:26:40.259Z,11068
2017-05-25T09:27:49.156Z,12448
2017-05-25T09:28:58.526Z,16064
2017-05-25T09:30:08.081Z,15900
2017-05-25T09:31:17.081Z,14580
2017-05-25T09:32:26.625Z,15300
2017-05-25T09:33:36.499Z,14832
2017-05-25T09:34:45.719Z,14620
2017-05-25T09:35:54.949Z,12372
2017-05-25T09:37:04.151Z,9652
2017-05-25T09:38:13.376Z,7844
2017-05-25T09:39:22.927Z,6716
2017-05-25T09:40:32.476Z,7532
2017-05-25T09:41:41.712Z,12252
2017-05-25T09:42:50.920Z,18464
2017-05-25T09:44:00.146Z,13264
2017-05-25T09:45:09.042Z,11196
2017-05-25T09:46:18.267Z,9972
2017-05-25T09:47:27.166Z,10504
2017-05-25T09:48:36.868Z,12736
2017-05-25T09:49:46.093Z,14884
2017-05-25T09:50:55.360Z,15684
2017-05-25T09:52:04.269Z,14412
2017-05-25T09:53:13.168Z,13924
2017-05-25T09:54:23.180Z,13020
2017-05-25T09:55:32.727Z,12884
2017-05-25T09:56:41.626Z,11784
2017-05-25T09:57:50.527Z,13568
2017-05-25T09:59:00.144Z,13884
2017-05-25T10:00:09.355Z,13468
2017-05-25T10:01:18.255Z,14720
2017-05-25T10:02:27.489Z,16192
2017-05-25T10:03:36.388Z,16864
2017-05-25T10:04:45.660Z,14200
2017-05-25T10:05:55.038Z,11552
2017-05-25T10:07:04.263Z,10816
2017-05-25T10:08:14.144Z,10256
2017-05-25T10:09:23.371Z,9552
2017-05-25T10:10:32.267Z,8988
2017-05-25T10:11:41.588Z,9804
2017-05-25T10:12:50.813Z,11972
2017-05-25T10:14:00.044Z,14108
2017-05-25T10:15:09.269Z,16800
2017-05-25T10:16:18.491Z,14892
2017-05-25T10:17:27.820Z,8632
2017-05-25T10:18:37.372Z,5168
2017-05-25T10:19:46.595Z,4732
2017-05-25T10:20:55.836Z,4932
2017-05-25T10:22:04.730Z,4724
2017-05-25T10:23:13.777Z,5016
2017-05-25T10:24:22.997Z,6440
2017-05-25T10:25:31.912Z,6052
2017-05-25T10:26:41.137Z,5700
2017-05-25T10:27:50.691Z,6644
2017-05-25T10:29:00.114Z,7080
2017-05-25T10:30:09.017Z,7980
2017-05-25T10:31:18.239Z,10140
2017-05-25T10:32:27.140Z,15644
2017-05-25T10:33:36.696Z,11432
2017-05-25T10:34:46.939Z,9944
2017-05-25T10:35:56.176Z,11852
2017-05-25T10:37:05.724Z,16196
2017-05-25T10:38:14.955Z,17728
2017-05-25T10:39:24.180Z,13056
2017-05-25T10:40:34.154Z,13636
2017-05-25T10:41:43.376Z,18944
2017-05-25T10:42:52.600Z,18528
2017-05-25T10:44:01.841Z,17056
2017-05-25T10:45:10.740Z,18336
2017-05-25T10:46:20.252Z,17280
2017-05-25T10:47:29.152Z,17632
2017-05-25T10:48:38.376Z,16768
2017-05-25T10:49:47.345Z,16672
2017-05-25T10:50:56.243Z,14316
2017-05-25T10:52:05.194Z,13624
2017-05-25T10:53:14.429Z,16960
2017-05-25T10:54:23.332Z,13944
2017-05-25T10:55:32.884Z,12756
2017-05-25T10:56:41.787Z,17408
2017-05-25T10:57:51.487Z,19488
2017-05-25T10:59:01.041Z,18656
2017-05-25T11:00:10.267Z,15880
2017-05-25T11:01:19.489Z,16768
2017-05-25T11:02:29.048Z,16576
2017-05-25T11:03:38.703Z,17120
2017-05-25T11:04:47.930Z,18112
2017-05-25T11:05:57.154Z,15472
2017-05-25T11:07:06.381Z,12236
2017-05-25T11:08:15.610Z,10204
2017-05-25T11:09:24.987Z,11048
2017-05-25T11:10:34.226Z,14064
2017-05-25T11:11:43.124Z,15908
2017-05-25T11:12:53.013Z,17056
2017-05-25T11:14:02.236Z,16044
2017-05-25T11:15:11.133Z,14740
2017-05-25T11:16:20.033Z,18304
2017-05-25T11:17:29.272Z,19840
2017-05-25T11:18:38.498Z,17536
2017-05-25T11:19:48.386Z,18880
2017-05-25T11:20:57.782Z,16520
2017-05-25T11:22:07.008Z,18496
2017-05-25T11:23:15.906Z,19328
2017-05-25T11:24:25.795Z,20576
2017-05-25T11:25:35.023Z,19328
2017-05-25T11:26:44.871Z,20000
2017-05-25T11:27:53.774Z,18624
2017-05-25T11:29:03.325Z,17696
2017-05-25T11:30:12.552Z,18208
2017-05-25T11:31:21.781Z,18624
2017-05-25T11:32:31.063Z,16092
2017-05-25T11:33:39.963Z,17504
2017-05-25T11:34:49.843Z,15712
2017-05-25T11:35:59.070Z,18112
2017-05-25T11:37:07.973Z,19424
2017-05-25T11:38:17.777Z,16024
2017-05-25T11:39:27.013Z,9288
2017-05-25T11:40:36.239Z,13660
2017-05-25T11:41:45.476Z,13552
2017-05-25T11:42:54.709Z,16188
2017-05-25T11:44:03.772Z,22336
2017-05-25T11:45:12.680Z,17056
2017-05-25T11:46:21.913Z,18048
2017-05-25T11:47:31.148Z,20160
2017-05-25T11:48:40.385Z,24192
2017-05-25T11:49:49.456Z,20544
2017-05-25T11:50:58.681Z,27872
2017-05-25T11:52:07.581Z,21728
2017-05-25T11:53:16.807Z,36064
2017-05-25T11:54:26.360Z,34144
2017-05-25T11:55:35.837Z,39552
2017-05-25T11:56:44.739Z,21632
2017-05-25T11:57:53.966Z,23008
2017-05-25T11:59:03.524Z,19552
2017-05-25T12:00:12.752Z,25984
2017-05-25T12:01:22.033Z,26656
2017-05-25T12:02:30.937Z,36128
2017-05-25T12:03:40.875Z,94944
2017-05-25T12:04:50.102Z,73248
2017-05-25T12:05:59.387Z,28704
2017-05-25T12:07:08.718Z,36288
2017-05-25T12:08:18.276Z,29088
2017-05-25T12:09:27.830Z,21792
2017-05-25T12:10:36.731Z,21312
2017-05-25T12:11:45.636Z,19968
2017-05-25T12:12:55.662Z,24736
2017-05-25T12:14:04.887Z,27168
2017-05-25T12:15:13.793Z,28288
2017-05-25T12:16:23.346Z,26208
2017-05-25T12:17:32.575Z,22304
2017-05-25T12:18:42.778Z,42112
2017-05-25T12:19:52.668Z,34016
2017-05-25T12:21:01.576Z,112160
2017-05-25T12:22:10.484Z,69984
2017-05-25T12:23:19.713Z,39808
2017-05-25T12:24:29.751Z,36992
2017-05-25T12:25:38.985Z,33856
2017-05-25T12:26:47.889Z,57664
2017-05-25T12:27:57.449Z,51392
2017-05-25T12:29:06.681Z,39264
2017-05-25T12:30:15.740Z,82240
2017-05-25T12:31:24.973Z,86784
2017-05-25T12:32:34.524Z,25856
2017-05-25T12:33:43.433Z,21152
2017-05-25T12:34:52.340Z,44544
2017-05-25T12:36:01.394Z,29088
2017-05-25T12:37:10.295Z,27072
2017-05-25T12:38:19.531Z,41216
2017-05-25T12:39:29.413Z,35072
2017-05-25T12:40:38.319Z,36544
2017-05-25T12:41:47.981Z,29888
2017-05-25T12:42:57.212Z,57408
2017-05-25T12:44:06.767Z,64704
2017-05-25T12:45:15.669Z,25920
2017-05-25T12:46:24.572Z,35936
2017-05-25T12:47:33.633Z,49344
2017-05-25T12:48:43.202Z,50368
2017-05-25T12:49:52.436Z,26272
2017-05-25T12:51:01.675Z,28128
2017-05-25T12:52:10.909Z,28320
2017-05-25T12:53:19.866Z,52864
2017-05-25T12:54:29.590Z,69760
2017-05-25T12:55:38.826Z,70592
2017-05-25T12:56:48.059Z,73728
2017-05-25T12:57:57.290Z,49152
2017-05-25T12:59:06.350Z,48640
2017-05-25T13:00:15.584Z,45472
2017-05-25T13:01:24.492Z,61952
2017-05-25T13:02:33.718Z,46400
2017-05-25T13:03:42.623Z,55648
2017-05-25T13:04:52.338Z,47296
2017-05-25T13:06:01.571Z,47520
2017-05-25T13:07:10.492Z,47936
2017-05-25T13:08:20.050Z,42240
2017-05-25T13:09:29.619Z,49856
2017-05-25T13:10:38.525Z,48960
2017-05-25T13:11:47.757Z,42368
2017-05-25T13:12:56.992Z,45280
2017-05-25T13:14:05.897Z,45248
2017-05-25T13:15:15.178Z,46848
2017-05-25T13:16:24.085Z,44160
2017-05-25T13:17:32.995Z,52704
2017-05-25T13:18:42.233Z,41664
2017-05-25T13:19:51.792Z,38080
2017-05-25T13:21:00.702Z,38688
2017-05-25T13:22:10.235Z,39136
2017-05-25T13:23:19.156Z,39584
2017-05-25T13:24:28.722Z,40960
2017-05-25T13:25:37.632Z,43520
2017-05-25T13:26:47.840Z,40800
2017-05-25T13:27:57.439Z,53088
2017-05-25T13:29:07.018Z,50816
2017-05-25T13:30:15.925Z,62656
2017-05-25T13:31:24.833Z,49184
2017-05-25T13:32:33.747Z,45792
2017-05-25T13:33:43.131Z,47680
2017-05-25T13:34:52.365Z,45440
2017-05-25T13:36:01.922Z,44480
2017-05-25T13:37:10.830Z,50944
2017-05-25T13:38:19.735Z,47168
2017-05-25T13:39:28.908Z,42624
2017-05-25T13:40:38.472Z,62400
2017-05-25T13:41:47.707Z,48768
2017-05-25T13:42:57.265Z,49376
2017-05-25T13:44:06.827Z,45568
2017-05-25T13:45:15.891Z,42400
2017-05-25T13:46:24.797Z,40608
2017-05-25T13:47:34.030Z,38240
2017-05-25T13:48:43.919Z,35520
2017-05-25T13:49:53.483Z,27360
2017-05-25T13:51:03.142Z,32672
2017-05-25T13:52:12.386Z,26720
2017-05-25T13:53:21.946Z,31328
2017-05-25T13:54:31.003Z,37504
2017-05-25T13:55:40.562Z,27424
2017-05-25T13:56:50.000Z,30112
2017-05-25T13:57:59.240Z,36384
2017-05-25T13:59:08.474Z,35808
2017-05-25T14:00:17.380Z,32928
2017-05-25T14:01:26.616Z,30944
2017-05-25T14:02:35.848Z,31072
2017-05-25T14:03:45.416Z,31712
2017-05-25T14:04:54.647Z,31872
2017-05-25T14:06:04.200Z,32000
2017-05-25T14:07:13.755Z,31200
2017-05-25T14:08:23.309Z,28896
2017-05-25T14:09:32.867Z,29216
2017-05-25T14:10:42.098Z,31104
2017-05-25T14:11:51.358Z,32384
2017-05-25T14:13:00.600Z,33856
2017-05-25T14:14:09.810Z,36736
2017-05-25T14:15:19.049Z,36768
2017-05-25T14:16:27.970Z,32864
2017-05-25T14:17:37.228Z,31200
2017-05-25T14:18:46.464Z,31040
2017-05-25T14:19:55.572Z,32256
2017-05-25T14:21:04.803Z,33600
2017-05-25T14:22:13.712Z,39200
2017-05-25T14:23:22.958Z,38816
2017-05-25T14:24:32.517Z,43648
2017-05-25T14:25:41.629Z,50304
2017-05-25T14:26:50.544Z,36064
2017-05-25T14:28:00.428Z,36128
2017-05-25T14:29:09.674Z,34016
2017-05-25T14:30:18.913Z,33728
2017-05-25T14:31:27.872Z,32704
2017-05-25T14:32:36.776Z,35936
2017-05-25T14:33:46.023Z,34816
2017-05-25T14:34:55.587Z,37824
2017-05-25T14:36:04.829Z,33088
2017-05-25T14:37:14.328Z,32544
2017-05-25T14:38:23.562Z,31232
2017-05-25T14:39:33.443Z,30848
2017-05-25T14:40:42.346Z,29568
2017-05-25T14:41:51.258Z,31232
2017-05-25T14:43:00.737Z,31168
2017-05-25T14:44:09.642Z,32320
2017-05-25T14:45:18.548Z,34944
2017-05-25T14:46:27.456Z,36160
2017-05-25T14:47:36.360Z,36736
2017-05-25T14:48:45.975Z,36800
2017-05-25T14:49:55.548Z,36832
2017-05-25T14:51:04.454Z,35872
2017-05-25T14:52:13.686Z,36800
2017-05-25T14:53:22.590Z,32608
2017-05-25T14:54:31.872Z,31680
2017-05-25T14:55:40.783Z,31008
2017-05-25T14:56:50.338Z,31360
2017-05-25T14:57:59.904Z,31776
2017-05-25T14:59:08.808Z,30272
2017-05-25T15:00:17.715Z,32512
2017-05-25T15:01:26.623Z,31968
2017-05-25T15:02:36.178Z,27904
2017-05-25T15:03:45.742Z,26720
2017-05-25T15:04:54.649Z,26816
2017-05-25T15:06:03.756Z,26560
2017-05-25T15:07:12.984Z,27008
2017-05-25T15:08:21.891Z,25920
2017-05-25T15:09:31.455Z,25024
2017-05-25T15:10:40.358Z,23840
2017-05-25T15:11:49.966Z,23648
2017-05-25T15:12:59.518Z,23072
2017-05-25T15:14:08.427Z,23168
2017-05-25T15:15:17.661Z,23360
2017-05-25T15:16:26.888Z,23392
2017-05-25T15:17:36.168Z,23296
2017-05-25T15:18:45.397Z,23200
2017-05-25T15:19:55.277Z,23232
2017-05-25T15:21:04.506Z,23456
2017-05-25T15:22:13.405Z,23328
2017-05-25T15:23:22.637Z,24480
2017-05-25T15:24:32.516Z,23360
2017-05-25T15:25:41.743Z,22816
2017-05-25T15:26:51.296Z,21536
2017-05-25T15:28:00.850Z,21984
2017-05-25T15:29:09.905Z,22464
2017-05-25T15:30:19.132Z,21952